sensor_id;sensor_type;location;lat;lon;timestamp;temperature;humidity
26687;DHT22;14298;50.900;4.648;2022-07-12T00:00:57;15.40;97.10
26687;DHT22;14298;50.900;4.648;2022-07-12T00:03:25;15.30;97.10
26687;DHT22;14298;50.900;4.648;2022-07-12T00:05:54;15.30;97.10
26687;DHT22;14298;50.900;4.648;2022-07-12T00:08:23;15.40;97.10
26687;DHT22;14298;50.900;4.648;2022-07-12T00:10:52;15.30;97.10
26687;DHT22;14298;50.900;4.648;2022-07-12T00:13:20;15.30;97.10
26687;DHT22;14298;50.900;4.648;2022-07-12T00:15:54;15.30;97.10
26687;DHT22;14298;50.900;4.648;2022-07-12T00:18:18;15.30;97.10
26687;DHT22;14298;50.900;4.648;2022-07-12T00:20:47;15.30;97.10
26687;DHT22;14298;50.900;4.648;2022-07-12T00:23:15;15.20;97.10
26687;DHT22;14298;50.900;4.648;2022-07-12T00:25:44;15.10;97.10
26687;DHT22;14298;50.900;4.648;2022-07-12T00:28:12;15.00;97.10
26687;DHT22;14298;50.900;4.648;2022-07-12T00:30:41;14.90;97.10
26687;DHT22;14298;50.900;4.648;2022-07-12T00:33:09;14.90;97.10
26687;DHT22;14298;50.900;4.648;2022-07-12T00:35:38;14.80;97.10
26687;DHT22;14298;50.900;4.648;2022-07-12T00:38:06;14.70;97.10
26687;DHT22;14298;50.900;4.648;2022-07-12T00:40:34;14.70;97.10
26687;DHT22;14298;50.900;4.648;2022-07-12T00:43:03;14.60;97.10
26687;DHT22;14298;50.900;4.648;2022-07-12T00:45:31;14.60;97.10
26687;DHT22;14298;50.900;4.648;2022-07-12T00:47:59;14.50;97.10
26687;DHT22;14298;50.900;4.648;2022-07-12T00:50:28;14.50;97.10
26687;DHT22;14298;50.900;4.648;2022-07-12T00:52:57;14.40;97.10
26687;DHT22;14298;50.900;4.648;2022-07-12T00:55:26;14.40;97.10
26687;DHT22;14298;50.900;4.648;2022-07-12T00:57:54;14.30;97.10
26687;DHT22;14298;50.900;4.648;2022-07-12T01:00:27;14.30;97.10
26687;DHT22;14298;50.900;4.648;2022-07-12T01:02:58;14.30;97.10
26687;DHT22;14298;50.900;4.648;2022-07-12T01:05:31;14.20;97.10
26687;DHT22;14298;50.900;4.648;2022-07-12T01:07:59;14.20;97.10
26687;DHT22;14298;50.900;4.648;2022-07-12T01:10:30;14.20;97.10
26687;DHT22;14298;50.900;4.648;2022-07-12T01:12:59;14.10;97.10
26687;DHT22;14298;50.900;4.648;2022-07-12T01:15:29;14.10;97.10
26687;DHT22;14298;50.900;4.648;2022-07-12T01:17:58;14.10;97.10
26687;DHT22;14298;50.900;4.648;2022-07-12T01:20:26;14.00;97.10
26687;DHT22;14298;50.900;4.648;2022-07-12T01:22:56;14.00;97.10
26687;DHT22;14298;50.900;4.648;2022-07-12T01:25:28;14.00;97.10
26687;DHT22;14298;50.900;4.648;2022-07-12T01:27:57;14.00;97.10
26687;DHT22;14298;50.900;4.648;2022-07-12T01:30:26;13.90;97.10
26687;DHT22;14298;50.900;4.648;2022-07-12T01:32:54;13.90;97.10
26687;DHT22;14298;50.900;4.648;2022-07-12T01:35:25;13.90;97.10
26687;DHT22;14298;50.900;4.648;2022-07-12T01:37:53;13.90;97.10
26687;DHT22;14298;50.900;4.648;2022-07-12T01:40:22;13.90;97.10
26687;DHT22;14298;50.900;4.648;2022-07-12T01:42:51;13.80;97.10
26687;DHT22;14298;50.900;4.648;2022-07-12T01:45:19;13.80;97.10
26687;DHT22;14298;50.900;4.648;2022-07-12T01:47:48;13.80;97.10
26687;DHT22;14298;50.900;4.648;2022-07-12T01:50:16;13.80;97.10
26687;DHT22;14298;50.900;4.648;2022-07-12T01:52:45;13.70;97.10
26687;DHT22;14298;50.900;4.648;2022-07-12T01:55:13;13.70;97.10
26687;DHT22;14298;50.900;4.648;2022-07-12T01:57:42;13.60;97.10
26687;DHT22;14298;50.900;4.648;2022-07-12T02:00:11;13.60;97.10
26687;DHT22;14298;50.900;4.648;2022-07-12T02:02:41;13.60;97.10
26687;DHT22;14298;50.900;4.648;2022-07-12T02:05:09;13.60;97.10
26687;DHT22;14298;50.900;4.648;2022-07-12T02:07:38;13.60;97.10
26687;DHT22;14298;50.900;4.648;2022-07-12T02:10:07;13.60;97.10
26687;DHT22;14298;50.900;4.648;2022-07-12T02:12:36;13.50;97.10
26687;DHT22;14298;50.900;4.648;2022-07-12T02:15:06;13.50;97.10
26687;DHT22;14298;50.900;4.648;2022-07-12T02:17:35;13.50;97.10
26687;DHT22;14298;50.900;4.648;2022-07-12T02:20:05;13.50;97.10
26687;DHT22;14298;50.900;4.648;2022-07-12T02:22:34;13.50;97.10
26687;DHT22;14298;50.900;4.648;2022-07-12T02:25:02;13.50;97.10
26687;DHT22;14298;50.900;4.648;2022-07-12T02:27:31;13.50;97.10
26687;DHT22;14298;50.900;4.648;2022-07-12T02:29:59;13.50;97.10
26687;DHT22;14298;50.900;4.648;2022-07-12T02:32:28;13.50;97.10
26687;DHT22;14298;50.900;4.648;2022-07-12T02:34:56;13.40;97.10
26687;DHT22;14298;50.900;4.648;2022-07-12T02:37:25;13.40;97.10
26687;DHT22;14298;50.900;4.648;2022-07-12T02:39:54;13.40;97.10
26687;DHT22;14298;50.900;4.648;2022-07-12T02:42:24;13.40;97.10
26687;DHT22;14298;50.900;4.648;2022-07-12T02:44:52;13.40;97.10
26687;DHT22;14298;50.900;4.648;2022-07-12T02:47:20;13.50;97.10
26687;DHT22;14298;50.900;4.648;2022-07-12T02:49:49;13.50;97.10
26687;DHT22;14298;50.900;4.648;2022-07-12T02:52:17;13.50;97.10
26687;DHT22;14298;50.900;4.648;2022-07-12T02:54:47;13.50;97.10
26687;DHT22;14298;50.900;4.648;2022-07-12T02:57:15;13.40;97.10
26687;DHT22;14298;50.900;4.648;2022-07-12T02:59:43;13.40;97.10
26687;DHT22;14298;50.900;4.648;2022-07-12T03:02:12;13.30;97.10
26687;DHT22;14298;50.900;4.648;2022-07-12T03:04:40;13.30;97.10
26687;DHT22;14298;50.900;4.648;2022-07-12T03:07:08;13.20;97.10
26687;DHT22;14298;50.900;4.648;2022-07-12T03:09:37;13.20;97.10
26687;DHT22;14298;50.900;4.648;2022-07-12T03:12:06;13.10;97.10
26687;DHT22;14298;50.900;4.648;2022-07-12T03:14:34;13.20;97.10
26687;DHT22;14298;50.900;4.648;2022-07-12T03:17:03;13.20;97.10
26687;DHT22;14298;50.900;4.648;2022-07-12T03:19:31;13.10;97.10
26687;DHT22;14298;50.900;4.648;2022-07-12T03:21:59;13.10;97.10
26687;DHT22;14298;50.900;4.648;2022-07-12T03:24:28;13.10;97.10
26687;DHT22;14298;50.900;4.648;2022-07-12T03:26:56;13.10;97.10
26687;DHT22;14298;50.900;4.648;2022-07-12T03:29:24;13.10;97.10
26687;DHT22;14298;50.900;4.648;2022-07-12T03:31:53;13.00;97.10
26687;DHT22;14298;50.900;4.648;2022-07-12T03:34:21;13.00;97.10
26687;DHT22;14298;50.900;4.648;2022-07-12T03:36:49;13.00;97.10
26687;DHT22;14298;50.900;4.648;2022-07-12T03:39:18;13.00;97.10
26687;DHT22;14298;50.900;4.648;2022-07-12T03:41:46;13.00;97.10
26687;DHT22;14298;50.900;4.648;2022-07-12T03:44:15;13.00;97.10
26687;DHT22;14298;50.900;4.648;2022-07-12T03:46:43;13.00;97.10
26687;DHT22;14298;50.900;4.648;2022-07-12T03:49:11;13.10;97.10
26687;DHT22;14298;50.900;4.648;2022-07-12T03:51:40;13.10;97.10
26687;DHT22;14298;50.900;4.648;2022-07-12T03:54:08;13.10;97.10
26687;DHT22;14298;50.900;4.648;2022-07-12T03:56:36;13.10;97.10
26687;DHT22;14298;50.900;4.648;2022-07-12T03:59:24;13.10;97.10
26687;DHT22;14298;50.900;4.648;2022-07-12T04:01:53;13.20;97.10
26687;DHT22;14298;50.900;4.648;2022-07-12T04:04:21;13.20;97.10
26687;DHT22;14298;50.900;4.648;2022-07-12T04:06:49;13.20;97.10
26687;DHT22;14298;50.900;4.648;2022-07-12T04:09:18;13.30;97.10
26687;DHT22;14298;50.900;4.648;2022-07-12T04:11:46;13.40;97.10
26687;DHT22;14298;50.900;4.648;2022-07-12T04:14:15;13.40;97.10
26687;DHT22;14298;50.900;4.648;2022-07-12T04:16:43;13.40;97.10
26687;DHT22;14298;50.900;4.648;2022-07-12T04:19:12;13.40;97.10
26687;DHT22;14298;50.900;4.648;2022-07-12T04:21:40;13.40;97.10
26687;DHT22;14298;50.900;4.648;2022-07-12T04:24:08;13.60;97.10
26687;DHT22;14298;50.900;4.648;2022-07-12T04:26:37;13.70;97.10
26687;DHT22;14298;50.900;4.648;2022-07-12T04:29:05;13.80;97.10
26687;DHT22;14298;50.900;4.648;2022-07-12T04:31:33;13.90;97.10
26687;DHT22;14298;50.900;4.648;2022-07-12T04:34:02;14.00;97.10
26687;DHT22;14298;50.900;4.648;2022-07-12T04:36:30;14.00;97.10
26687;DHT22;14298;50.900;4.648;2022-07-12T04:39:00;14.10;97.10
26687;DHT22;14298;50.900;4.648;2022-07-12T04:41:28;14.20;97.10
26687;DHT22;14298;50.900;4.648;2022-07-12T04:43:56;14.20;97.10
26687;DHT22;14298;50.900;4.648;2022-07-12T04:46:25;14.40;97.10
26687;DHT22;14298;50.900;4.648;2022-07-12T04:48:53;14.50;97.10
26687;DHT22;14298;50.900;4.648;2022-07-12T04:51:22;14.80;97.10
26687;DHT22;14298;50.900;4.648;2022-07-12T04:53:51;15.20;97.10
26687;DHT22;14298;50.900;4.648;2022-07-12T04:56:19;15.60;97.10
26687;DHT22;14298;50.900;4.648;2022-07-12T04:58:48;16.00;97.10
26687;DHT22;14298;50.900;4.648;2022-07-12T05:01:17;16.30;97.10
26687;DHT22;14298;50.900;4.648;2022-07-12T05:03:47;16.60;97.10
26687;DHT22;14298;50.900;4.648;2022-07-12T05:06:16;16.80;97.10
26687;DHT22;14298;50.900;4.648;2022-07-12T05:08:45;17.10;97.10
26687;DHT22;14298;50.900;4.648;2022-07-12T05:11:13;17.30;97.10
26687;DHT22;14298;50.900;4.648;2022-07-12T05:13:42;17.60;97.10
26687;DHT22;14298;50.900;4.648;2022-07-12T05:16:10;17.90;97.10
26687;DHT22;14298;50.900;4.648;2022-07-12T05:18:38;18.10;97.10
26687;DHT22;14298;50.900;4.648;2022-07-12T05:21:06;18.40;97.10
26687;DHT22;14298;50.900;4.648;2022-07-12T05:23:35;18.60;97.10
26687;DHT22;14298;50.900;4.648;2022-07-12T05:26:03;18.80;97.10
26687;DHT22;14298;50.900;4.648;2022-07-12T05:28:32;18.90;97.10
26687;DHT22;14298;50.900;4.648;2022-07-12T05:31:00;19.20;97.10
26687;DHT22;14298;50.900;4.648;2022-07-12T05:33:28;19.20;97.10
26687;DHT22;14298;50.900;4.648;2022-07-12T05:35:57;19.20;97.10
26687;DHT22;14298;50.900;4.648;2022-07-12T05:38:25;19.40;97.10
26687;DHT22;14298;50.900;4.648;2022-07-12T05:40:53;19.50;97.10
26687;DHT22;14298;50.900;4.648;2022-07-12T05:43:22;19.70;97.10
26687;DHT22;14298;50.900;4.648;2022-07-12T05:45:50;19.90;97.10
26687;DHT22;14298;50.900;4.648;2022-07-12T05:48:18;20.10;97.10
26687;DHT22;14298;50.900;4.648;2022-07-12T05:50:47;20.00;97.10
26687;DHT22;14298;50.900;4.648;2022-07-12T05:53:15;20.10;97.10
26687;DHT22;14298;50.900;4.648;2022-07-12T05:55:45;20.30;97.10
26687;DHT22;14298;50.900;4.648;2022-07-12T05:58:13;20.60;97.10
26687;DHT22;14298;50.900;4.648;2022-07-12T06:00:42;20.70;97.10
26687;DHT22;14298;50.900;4.648;2022-07-12T06:03:10;20.90;97.10
26687;DHT22;14298;50.900;4.648;2022-07-12T06:05:39;21.10;97.10
26687;DHT22;14298;50.900;4.648;2022-07-12T06:08:08;21.00;97.10
26687;DHT22;14298;50.900;4.648;2022-07-12T06:10:36;20.60;97.10
26687;DHT22;14298;50.900;4.648;2022-07-12T06:13:05;20.50;97.10
26687;DHT22;14298;50.900;4.648;2022-07-12T06:15:33;20.70;97.10
26687;DHT22;14298;50.900;4.648;2022-07-12T06:18:02;20.70;97.10
26687;DHT22;14298;50.900;4.648;2022-07-12T06:20:31;20.40;97.10
26687;DHT22;14298;50.900;4.648;2022-07-12T06:22:59;20.40;97.10
26687;DHT22;14298;50.900;4.648;2022-07-12T06:25:28;20.30;97.10
26687;DHT22;14298;50.900;4.648;2022-07-12T06:28:01;20.60;97.10
26687;DHT22;14298;50.900;4.648;2022-07-12T06:30:30;20.80;97.10
26687;DHT22;14298;50.900;4.648;2022-07-12T06:32:58;21.20;97.10
26687;DHT22;14298;50.900;4.648;2022-07-12T06:35:26;21.00;97.10
26687;DHT22;14298;50.900;4.648;2022-07-12T06:37:55;21.20;97.10
26687;DHT22;14298;50.900;4.648;2022-07-12T06:40:24;21.90;97.10
26687;DHT22;14298;50.900;4.648;2022-07-12T06:42:52;22.50;97.10
26687;DHT22;14298;50.900;4.648;2022-07-12T06:45:20;23.00;97.10
26687;DHT22;14298;50.900;4.648;2022-07-12T06:47:48;23.40;97.10
26687;DHT22;14298;50.900;4.648;2022-07-12T06:50:17;23.80;97.10
26687;DHT22;14298;50.900;4.648;2022-07-12T06:52:46;24.30;97.10
26687;DHT22;14298;50.900;4.648;2022-07-12T06:55:14;24.60;97.10
26687;DHT22;14298;50.900;4.648;2022-07-12T06:57:43;24.80;97.10
26687;DHT22;14298;50.900;4.648;2022-07-12T07:00:12;24.00;97.10
26687;DHT22;14298;50.900;4.648;2022-07-12T07:02:40;23.90;97.10
26687;DHT22;14298;50.900;4.648;2022-07-12T07:05:09;24.10;97.10
26687;DHT22;14298;50.900;4.648;2022-07-12T07:07:38;24.40;97.10
26687;DHT22;14298;50.900;4.648;2022-07-12T07:10:07;24.60;97.10
26687;DHT22;14298;50.900;4.648;2022-07-12T07:12:36;24.80;97.10
26687;DHT22;14298;50.900;4.648;2022-07-12T07:15:05;24.90;97.10
26687;DHT22;14298;50.900;4.648;2022-07-12T07:17:34;25.20;97.10
26687;DHT22;14298;50.900;4.648;2022-07-12T07:20:03;25.60;97.10
26687;DHT22;14298;50.900;4.648;2022-07-12T07:22:31;25.60;97.10
26687;DHT22;14298;50.900;4.648;2022-07-12T07:25:00;25.90;97.10
26687;DHT22;14298;50.900;4.648;2022-07-12T07:27:28;26.00;97.10
26687;DHT22;14298;50.900;4.648;2022-07-12T07:29:56;26.00;97.10
26687;DHT22;14298;50.900;4.648;2022-07-12T07:32:42;26.30;97.10
26687;DHT22;14298;50.900;4.648;2022-07-12T07:35:12;26.10;97.10
26687;DHT22;14298;50.900;4.648;2022-07-12T07:37:40;26.50;97.10
26687;DHT22;14298;50.900;4.648;2022-07-12T07:40:09;26.70;97.10
26687;DHT22;14298;50.900;4.648;2022-07-12T07:42:38;26.60;97.10
26687;DHT22;14298;50.900;4.648;2022-07-12T07:45:07;26.60;97.10
26687;DHT22;14298;50.900;4.648;2022-07-12T07:47:45;26.80;97.10
26687;DHT22;14298;50.900;4.648;2022-07-12T07:50:14;27.00;97.10
26687;DHT22;14298;50.900;4.648;2022-07-12T07:52:43;27.60;97.10
26687;DHT22;14298;50.900;4.648;2022-07-12T07:55:12;28.00;97.10
26687;DHT22;14298;50.900;4.648;2022-07-12T07:57:41;28.10;97.10
26687;DHT22;14298;50.900;4.648;2022-07-12T08:00:10;27.90;97.10
26687;DHT22;14298;50.900;4.648;2022-07-12T08:02:40;27.60;97.10
26687;DHT22;14298;50.900;4.648;2022-07-12T08:05:08;27.20;97.10
26687;DHT22;14298;50.900;4.648;2022-07-12T08:07:36;27.20;97.10
26687;DHT22;14298;50.900;4.648;2022-07-12T08:10:05;27.50;97.10
26687;DHT22;14298;50.900;4.648;2022-07-12T08:12:34;27.50;97.10
26687;DHT22;14298;50.900;4.648;2022-07-12T08:15:02;27.80;97.10
26687;DHT22;14298;50.900;4.648;2022-07-12T08:17:31;28.20;97.10
26687;DHT22;14298;50.900;4.648;2022-07-12T08:19:59;28.50;97.10
26687;DHT22;14298;50.900;4.648;2022-07-12T08:22:28;28.50;97.10
26687;DHT22;14298;50.900;4.648;2022-07-12T08:24:56;28.40;97.10
26687;DHT22;14298;50.900;4.648;2022-07-12T08:27:25;28.80;97.10
26687;DHT22;14298;50.900;4.648;2022-07-12T08:29:53;29.00;97.10
26687;DHT22;14298;50.900;4.648;2022-07-12T08:32:21;29.00;97.10
26687;DHT22;14298;50.900;4.648;2022-07-12T08:34:49;28.80;97.10
26687;DHT22;14298;50.900;4.648;2022-07-12T08:37:18;29.00;97.10
26687;DHT22;14298;50.900;4.648;2022-07-12T08:39:46;29.10;97.10
26687;DHT22;14298;50.900;4.648;2022-07-12T08:42:16;29.00;97.10
26687;DHT22;14298;50.900;4.648;2022-07-12T08:44:54;29.00;97.10
26687;DHT22;14298;50.900;4.648;2022-07-12T08:47:23;29.40;97.10
26687;DHT22;14298;50.900;4.648;2022-07-12T08:50:10;29.30;97.10
26687;DHT22;14298;50.900;4.648;2022-07-12T08:52:41;29.60;97.10
26687;DHT22;14298;50.900;4.648;2022-07-12T08:55:23;30.00;97.10
26687;DHT22;14298;50.900;4.648;2022-07-12T08:57:49;30.10;97.10
26687;DHT22;14298;50.900;4.648;2022-07-12T09:00:18;29.80;97.10
26687;DHT22;14298;50.900;4.648;2022-07-12T09:02:48;30.10;97.10
26687;DHT22;14298;50.900;4.648;2022-07-12T09:05:19;30.90;97.10
26687;DHT22;14298;50.900;4.648;2022-07-12T09:07:48;29.40;97.10
26687;DHT22;14298;50.900;4.648;2022-07-12T09:10:17;29.10;97.10
26687;DHT22;14298;50.900;4.648;2022-07-12T09:12:46;30.20;97.10
26687;DHT22;14298;50.900;4.648;2022-07-12T09:15:21;31.40;97.10
26687;DHT22;14298;50.900;4.648;2022-07-12T09:18:00;32.90;97.10
26687;DHT22;14298;50.900;4.648;2022-07-12T09:20:35;34.20;97.10
26687;DHT22;14298;50.900;4.648;2022-07-12T09:23:05;34.60;97.10
26687;DHT22;14298;50.900;4.648;2022-07-12T09:25:35;35.50;97.10
26687;DHT22;14298;50.900;4.648;2022-07-12T09:28:05;35.50;94.30
26687;DHT22;14298;50.900;4.648;2022-07-12T09:30:34;35.20;95.20
26687;DHT22;14298;50.900;4.648;2022-07-12T09:33:06;34.40;93.80
26687;DHT22;14298;50.900;4.648;2022-07-12T09:41:19;32.90;97.00
26687;DHT22;14298;50.900;4.648;2022-07-12T09:43:49;32.40;97.10
26687;DHT22;14298;50.900;4.648;2022-07-12T09:46:18;31.70;97.10
26687;DHT22;14298;50.900;4.648;2022-07-12T09:48:47;31.40;97.10
26687;DHT22;14298;50.900;4.648;2022-07-12T09:51:17;31.30;97.10
26687;DHT22;14298;50.900;4.648;2022-07-12T09:53:47;31.50;97.10
26687;DHT22;14298;50.900;4.648;2022-07-12T09:56:16;31.50;97.10
26687;DHT22;14298;50.900;4.648;2022-07-12T09:58:59;31.70;97.10
26687;DHT22;14298;50.900;4.648;2022-07-12T10:01:25;31.20;97.10
26687;DHT22;14298;50.900;4.648;2022-07-12T10:03:54;30.90;97.10
26687;DHT22;14298;50.900;4.648;2022-07-12T10:06:29;31.00;97.10
26687;DHT22;14298;50.900;4.648;2022-07-12T10:08:58;31.10;97.10
26687;DHT22;14298;50.900;4.648;2022-07-12T10:11:27;31.10;97.10
26687;DHT22;14298;50.900;4.648;2022-07-12T10:13:55;30.90;97.10
26687;DHT22;14298;50.900;4.648;2022-07-12T10:16:27;30.70;97.10
26687;DHT22;14298;50.900;4.648;2022-07-12T10:21:47;30.60;97.10
26687;DHT22;14298;50.900;4.648;2022-07-12T10:29:47;30.60;97.10
26687;DHT22;14298;50.900;4.648;2022-07-12T10:32:26;30.60;97.10
26687;DHT22;14298;50.900;4.648;2022-07-12T10:35:03;30.90;97.10
26687;DHT22;14298;50.900;4.648;2022-07-12T10:37:35;31.00;97.10
26687;DHT22;14298;50.900;4.648;2022-07-12T10:45:41;30.20;97.10
26687;DHT22;14298;50.900;4.648;2022-07-12T10:56:20;30.30;97.10
26687;DHT22;14298;50.900;4.648;2022-07-12T10:58:52;30.10;97.10
26687;DHT22;14298;50.900;4.648;2022-07-12T11:01:31;30.20;97.10
26687;DHT22;14298;50.900;4.648;2022-07-12T11:04:03;30.20;97.10
26687;DHT22;14298;50.900;4.648;2022-07-12T11:06:27;30.00;97.10
26687;DHT22;14298;50.900;4.648;2022-07-12T11:09:12;29.90;97.10
26687;DHT22;14298;50.900;4.648;2022-07-12T11:11:47;29.80;97.10
26687;DHT22;14298;50.900;4.648;2022-07-12T11:14:24;29.90;97.10
26687;DHT22;14298;50.900;4.648;2022-07-12T11:16:53;29.70;97.10
26687;DHT22;14298;50.900;4.648;2022-07-12T11:19:26;29.50;97.10
26687;DHT22;14298;50.900;4.648;2022-07-12T11:21:55;29.50;97.10
26687;DHT22;14298;50.900;4.648;2022-07-12T11:24:34;29.70;97.10
26687;DHT22;14298;50.900;4.648;2022-07-12T11:27:04;29.70;97.10
26687;DHT22;14298;50.900;4.648;2022-07-12T11:29:33;29.80;97.10
26687;DHT22;14298;50.900;4.648;2022-07-12T11:32:05;29.70;97.10
26687;DHT22;14298;50.900;4.648;2022-07-12T11:34:35;29.90;97.10
26687;DHT22;14298;50.900;4.648;2022-07-12T11:37:03;29.80;97.10
26687;DHT22;14298;50.900;4.648;2022-07-12T11:39:37;29.80;97.10
26687;DHT22;14298;50.900;4.648;2022-07-12T11:42:07;29.60;97.10
26687;DHT22;14298;50.900;4.648;2022-07-12T11:44:45;29.20;97.10
26687;DHT22;14298;50.900;4.648;2022-07-12T11:47:15;29.00;97.10
26687;DHT22;14298;50.900;4.648;2022-07-12T11:49:45;29.10;97.10
26687;DHT22;14298;50.900;4.648;2022-07-12T11:52:19;29.00;97.10
26687;DHT22;14298;50.900;4.648;2022-07-12T11:54:49;28.70;97.10
26687;DHT22;14298;50.900;4.648;2022-07-12T11:57:22;28.80;97.10
26687;DHT22;14298;50.900;4.648;2022-07-12T11:59:51;28.60;97.10
26687;DHT22;14298;50.900;4.648;2022-07-12T12:02:19;28.90;97.10
26687;DHT22;14298;50.900;4.648;2022-07-12T12:04:53;29.10;97.10
26687;DHT22;14298;50.900;4.648;2022-07-12T12:07:23;29.20;97.10
26687;DHT22;14298;50.900;4.648;2022-07-12T12:10:12;29.30;97.10
26687;DHT22;14298;50.900;4.648;2022-07-12T12:12:53;28.90;97.10
26687;DHT22;14298;50.900;4.648;2022-07-12T12:15:27;28.70;97.10
26687;DHT22;14298;50.900;4.648;2022-07-12T12:18:08;28.60;97.10
26687;DHT22;14298;50.900;4.648;2022-07-12T12:20:35;28.50;97.10
26687;DHT22;14298;50.900;4.648;2022-07-12T12:23:06;28.70;97.10
26687;DHT22;14298;50.900;4.648;2022-07-12T12:25:35;29.10;97.10
26687;DHT22;14298;50.900;4.648;2022-07-12T12:28:04;29.40;97.10
26687;DHT22;14298;50.900;4.648;2022-07-12T12:30:34;29.60;97.10
26687;DHT22;14298;50.900;4.648;2022-07-12T12:33:04;29.60;97.10
26687;DHT22;14298;50.900;4.648;2022-07-12T12:35:36;29.50;97.10
26687;DHT22;14298;50.900;4.648;2022-07-12T12:38:13;29.60;97.10
26687;DHT22;14298;50.900;4.648;2022-07-12T12:40:49;29.60;97.10
26687;DHT22;14298;50.900;4.648;2022-07-12T12:43:19;29.60;97.10
26687;DHT22;14298;50.900;4.648;2022-07-12T12:45:56;29.70;97.10
26687;DHT22;14298;50.900;4.648;2022-07-12T12:48:26;30.00;97.10
26687;DHT22;14298;50.900;4.648;2022-07-12T12:51:09;30.10;97.10
26687;DHT22;14298;50.900;4.648;2022-07-12T12:53:41;30.00;97.10
26687;DHT22;14298;50.900;4.648;2022-07-12T12:56:12;30.00;97.10
26687;DHT22;14298;50.900;4.648;2022-07-12T12:58:41;30.30;97.10
26687;DHT22;14298;50.900;4.648;2022-07-12T13:01:10;30.60;95.70
26687;DHT22;14298;50.900;4.648;2022-07-12T13:03:38;30.70;97.10
26687;DHT22;14298;50.900;4.648;2022-07-12T13:06:06;30.70;97.10
26687;DHT22;14298;50.900;4.648;2022-07-12T13:08:35;30.50;95.80
26687;DHT22;14298;50.900;4.648;2022-07-12T13:11:04;30.00;96.90
26687;DHT22;14298;50.900;4.648;2022-07-12T13:13:49;29.80;97.10
26687;DHT22;14298;50.900;4.648;2022-07-12T13:16:17;29.50;97.10
26687;DHT22;14298;50.900;4.648;2022-07-12T13:18:46;29.80;97.10
26687;DHT22;14298;50.900;4.648;2022-07-12T13:21:14;30.20;97.10
26687;DHT22;14298;50.900;4.648;2022-07-12T13:23:44;29.70;97.10
26687;DHT22;14298;50.900;4.648;2022-07-12T13:26:12;29.20;97.10
26687;DHT22;14298;50.900;4.648;2022-07-12T13:28:41;29.30;97.10
26687;DHT22;14298;50.900;4.648;2022-07-12T13:31:09;29.50;97.10
26687;DHT22;14298;50.900;4.648;2022-07-12T13:33:37;29.90;97.10
26687;DHT22;14298;50.900;4.648;2022-07-12T13:36:06;30.00;97.10
26687;DHT22;14298;50.900;4.648;2022-07-12T13:38:34;30.20;97.10
26687;DHT22;14298;50.900;4.648;2022-07-12T13:41:03;30.50;97.10
26687;DHT22;14298;50.900;4.648;2022-07-12T13:43:31;30.50;97.10
26687;DHT22;14298;50.900;4.648;2022-07-12T13:46:00;30.20;97.10
26687;DHT22;14298;50.900;4.648;2022-07-12T13:48:28;30.20;97.10
26687;DHT22;14298;50.900;4.648;2022-07-12T13:50:57;30.30;97.10
26687;DHT22;14298;50.900;4.648;2022-07-12T13:53:26;30.50;97.10
26687;DHT22;14298;50.900;4.648;2022-07-12T13:55:54;30.50;97.10
26687;DHT22;14298;50.900;4.648;2022-07-12T13:58:22;30.50;97.10
26687;DHT22;14298;50.900;4.648;2022-07-12T14:00:51;30.50;97.10
26687;DHT22;14298;50.900;4.648;2022-07-12T14:03:19;30.60;97.10
26687;DHT22;14298;50.900;4.648;2022-07-12T14:05:47;30.60;97.10
26687;DHT22;14298;50.900;4.648;2022-07-12T14:08:16;30.10;97.10
26687;DHT22;14298;50.900;4.648;2022-07-12T14:10:44;29.50;97.10
26687;DHT22;14298;50.900;4.648;2022-07-12T14:13:15;29.30;97.10
26687;DHT22;14298;50.900;4.648;2022-07-12T14:15:43;29.00;97.10
26687;DHT22;14298;50.900;4.648;2022-07-12T14:18:12;29.00;97.10
26687;DHT22;14298;50.900;4.648;2022-07-12T14:20:41;29.20;97.10
26687;DHT22;14298;50.900;4.648;2022-07-12T14:23:10;29.30;97.10
26687;DHT22;14298;50.900;4.648;2022-07-12T14:25:40;29.50;97.10
26687;DHT22;14298;50.900;4.648;2022-07-12T14:28:09;29.40;97.10
26687;DHT22;14298;50.900;4.648;2022-07-12T14:30:37;29.50;97.10
26687;DHT22;14298;50.900;4.648;2022-07-12T14:33:05;29.60;97.10
26687;DHT22;14298;50.900;4.648;2022-07-12T14:35:34;29.60;97.10
26687;DHT22;14298;50.900;4.648;2022-07-12T14:38:02;30.10;97.10
26687;DHT22;14298;50.900;4.648;2022-07-12T14:40:31;29.90;97.10
26687;DHT22;14298;50.900;4.648;2022-07-12T14:42:59;29.90;97.00
26687;DHT22;14298;50.900;4.648;2022-07-12T14:45:27;29.60;97.10
26687;DHT22;14298;50.900;4.648;2022-07-12T14:47:56;29.50;96.00
26687;DHT22;14298;50.900;4.648;2022-07-12T14:50:24;29.40;96.50
26687;DHT22;14298;50.900;4.648;2022-07-12T14:52:52;29.40;95.00
26687;DHT22;14298;50.900;4.648;2022-07-12T14:55:21;29.60;96.10
26687;DHT22;14298;50.900;4.648;2022-07-12T14:57:49;29.60;92.10
26687;DHT22;14298;50.900;4.648;2022-07-12T15:00:17;29.70;94.10
26687;DHT22;14298;50.900;4.648;2022-07-12T15:02:47;29.90;92.20
26687;DHT22;14298;50.900;4.648;2022-07-12T15:05:15;29.80;92.40
26687;DHT22;14298;50.900;4.648;2022-07-12T15:07:44;29.80;93.20
26687;DHT22;14298;50.900;4.648;2022-07-12T15:10:13;29.70;92.10
26687;DHT22;14298;50.900;4.648;2022-07-12T15:12:41;29.70;94.10
26687;DHT22;14298;50.900;4.648;2022-07-12T15:15:09;30.10;96.60
26687;DHT22;14298;50.900;4.648;2022-07-12T15:17:38;30.30;96.20
26687;DHT22;14298;50.900;4.648;2022-07-12T15:20:07;30.60;94.40
26687;DHT22;14298;50.900;4.648;2022-07-12T15:22:36;30.80;93.80
26687;DHT22;14298;50.900;4.648;2022-07-12T15:25:04;30.60;92.10
26687;DHT22;14298;50.900;4.648;2022-07-12T15:27:33;30.80;94.20
26687;DHT22;14298;50.900;4.648;2022-07-12T15:30:02;30.90;91.50
26687;DHT22;14298;50.900;4.648;2022-07-12T15:32:31;30.70;92.60
26687;DHT22;14298;50.900;4.648;2022-07-12T15:34:59;30.70;92.30
26687;DHT22;14298;50.900;4.648;2022-07-12T15:37:27;30.60;96.20
26687;DHT22;14298;50.900;4.648;2022-07-12T15:39:56;30.70;93.10
26687;DHT22;14298;50.900;4.648;2022-07-12T15:42:24;30.40;91.00
26687;DHT22;14298;50.900;4.648;2022-07-12T15:44:53;30.40;92.50
26687;DHT22;14298;50.900;4.648;2022-07-12T15:47:21;30.40;93.20
26687;DHT22;14298;50.900;4.648;2022-07-12T15:49:49;30.50;95.50
26687;DHT22;14298;50.900;4.648;2022-07-12T15:52:18;30.70;94.00
26687;DHT22;14298;50.900;4.648;2022-07-12T15:55:05;30.90;91.80
26687;DHT22;14298;50.900;4.648;2022-07-12T15:57:40;30.70;92.90
26687;DHT22;14298;50.900;4.648;2022-07-12T16:00:10;30.70;90.90
26687;DHT22;14298;50.900;4.648;2022-07-12T16:02:39;30.40;92.10
26687;DHT22;14298;50.900;4.648;2022-07-12T16:05:07;30.60;92.50
26687;DHT22;14298;50.900;4.648;2022-07-12T16:07:37;30.70;93.20
26687;DHT22;14298;50.900;4.648;2022-07-12T16:10:07;30.80;93.20
26687;DHT22;14298;50.900;4.648;2022-07-12T16:12:35;30.80;92.20